Burgtor — V2OR7 — position and weather

sailwx.info

Track history (hours):
 
Tides and Currents Weather Stations Pressure Air Temp Water Temp Dewpoint Dewpoint Depression Visibility Wind Speed Wind Dir Waves Ship Positions

Burgtor

Last reported at 2014-Dec-17 20:31 UTC. Time now 2014-Dec-19 17:33 UTC.
Position N 48°18' W 004°41'.

Length 87 m; draft 3.6 m.

Type: Cargo ship. MMSI: 304665000.

Date/timePositionNaut miles runAvg speedWind from/ knotsBaromVisibWave heightAir tempDewpointWater temp
2014-Dec-17 20:31N 48°18' W 004°41'7 7.5
2014-Dec-17 19:33N 48°21' W 004°32'4 0.3
2014-Dec-17 08:27N 48°23' W 004°27'0 0.0
2014-Dec-17 07:33N 48°23' W 004°27'0 0.0
2014-Dec-17 06:33N 48°23' W 004°27'0 0.0
2014-Dec-17 05:33N 48°23' W 004°27'0 0.0
2014-Dec-17 04:33N 48°23' W 004°27'0 0.0
2014-Dec-17 03:33N 48°23' W 004°27'0 0.0
2014-Dec-17 02:33N 48°23' W 004°27'0 0.0
2014-Dec-17 01:33N 48°23' W 004°27'0 0.0
2014-Dec-17 00:33N 48°23' W 004°27'0 0.0
2014-Dec-16 23:33N 48°23' W 004°27'0 0.0
2014-Dec-16 22:33N 48°23' W 004°27'0 0.0
2014-Dec-16 21:33N 48°23' W 004°27'3 3.3
2014-Dec-16 20:33N 48°21' W 004°31'1010.0
2014-Dec-16 19:33N 48°17' W 004°45'9 9.4
2014-Dec-16 18:33N 48°13' W 004°57'17 5.5
2014-Dec-16 15:25N 47°56' W 004°58'137 8.1
2014-Dec-15 22:29N 46°30' W 002°20'8 8.4
2014-Dec-15 21:33N 46°25' W 002°11'3 3.3
2014-Dec-15 20:33N 46°23' W 002°08'1 0.9
2014-Dec-15 19:32N 46°22' W 002°08'8 8.6
2014-Dec-15 18:33N 46°17' W 001°58'9 8.6
2014-Dec-15 17:28N 46°11' W 001°48'6 0.1
2014-Dec-13 21:33N 46°08' W 001°40'9 9.2
2014-Dec-13 20:33N 46°11' W 001°53'  
Track history (hours):
 
Tides and Currents Weather Stations Pressure Air Temp Water Temp Dewpoint Dewpoint Depression Visibility Wind Speed Wind Dir Waves Ship Positions

Burgtor

Last reported at 2014-Dec-17 20:31 UTC. Time now 2014-Dec-19 17:33 UTC.
Position N 48°18' W 004°41'.

Length 87 m; draft 3.6 m.

Type: Cargo ship. MMSI: 304665000.

Date/timePositionNaut miles runAvg speedWind from/ knotsBaromVisibWave heightAir tempDewpointWater temp
2014-Dec-17 20:31N 48°18' W 004°41'7 7.5
2014-Dec-17 19:33N 48°21' W 004°32'4 0.3
2014-Dec-17 08:27N 48°23' W 004°27'0 0.0
2014-Dec-17 07:33N 48°23' W 004°27'0 0.0
2014-Dec-17 06:33N 48°23' W 004°27'0 0.0
2014-Dec-17 05:33N 48°23' W 004°27'0 0.0
2014-Dec-17 04:33N 48°23' W 004°27'0 0.0
2014-Dec-17 03:33N 48°23' W 004°27'0 0.0
2014-Dec-17 02:33N 48°23' W 004°27'0 0.0
2014-Dec-17 01:33N 48°23' W 004°27'0 0.0
2014-Dec-17 00:33N 48°23' W 004°27'0 0.0
2014-Dec-16 23:33N 48°23' W 004°27'0 0.0
2014-Dec-16 22:33N 48°23' W 004°27'0 0.0
2014-Dec-16 21:33N 48°23' W 004°27'3 3.3
2014-Dec-16 20:33N 48°21' W 004°31'1010.0
2014-Dec-16 19:33N 48°17' W 004°45'9 9.4
2014-Dec-16 18:33N 48°13' W 004°57'17 5.5
2014-Dec-16 15:25N 47°56' W 004°58'137 8.1
2014-Dec-15 22:29N 46°30' W 002°20'8 8.4
2014-Dec-15 21:33N 46°25' W 002°11'3 3.3
2014-Dec-15 20:33N 46°23' W 002°08'1 0.9
2014-Dec-15 19:32N 46°22' W 002°08'8 8.6
2014-Dec-15 18:33N 46°17' W 001°58'9 8.6
2014-Dec-15 17:28N 46°11' W 001°48'6 0.1
2014-Dec-13 21:33N 46°08' W 001°40'9 9.2
2014-Dec-13 20:33N 46°11' W 001°53'  

Dump ship's entire track history